createdAt,value
2022-12-27T00:00:55.347Z,2.20
2022-12-27T00:03:23.561Z,2.37
2022-12-27T00:05:53.064Z,2.60
2022-12-27T00:08:21.231Z,2.43
2022-12-27T00:10:49.368Z,2.67
2022-12-27T00:13:17.487Z,2.60
2022-12-27T00:15:45.649Z,2.90
2022-12-27T00:18:13.799Z,2.73
2022-12-27T00:20:41.961Z,2.60
2022-12-27T00:23:11.431Z,2.40
2022-12-27T00:25:39.577Z,2.73
2022-12-27T00:28:07.766Z,2.73
2022-12-27T00:30:35.904Z,2.23
2022-12-27T00:33:04.032Z,2.70
2022-12-27T00:35:32.185Z,2.40
2022-12-27T00:38:00.334Z,2.70
2022-12-27T00:40:29.871Z,2.13
2022-12-27T00:42:58.015Z,2.57
2022-12-27T00:45:26.193Z,2.50
2022-12-27T00:47:54.415Z,2.50
2022-12-27T00:50:22.544Z,2.70
2022-12-27T00:52:50.713Z,2.10
2022-12-27T00:55:19.067Z,2.10
2022-12-27T00:57:48.732Z,2.30
2022-12-27T01:00:17.428Z,2.27
2022-12-27T01:02:45.601Z,2.23
2022-12-27T01:05:14.256Z,1.90
2022-12-27T01:07:42.608Z,2.40
2022-12-27T01:10:10.916Z,2.67
2022-12-27T01:12:39.110Z,2.43
2022-12-27T01:15:10.552Z,2.40
2022-12-27T01:17:38.677Z,2.03
2022-12-27T01:20:07.317Z,2.00
2022-12-27T01:22:35.448Z,1.97
2022-12-27T01:25:03.610Z,1.93
2022-12-27T01:27:31.776Z,2.40
2022-12-27T01:29:59.949Z,2.27
2022-12-27T01:32:29.503Z,1.90
2022-12-27T01:34:57.630Z,2.73
2022-12-27T01:37:25.758Z,2.53
2022-12-27T01:39:53.894Z,2.63
2022-12-27T01:42:39.688Z,2.80
2022-12-27T01:45:15.328Z,2.43
2022-12-27T01:47:50.706Z,2.23
2022-12-27T01:50:22.683Z,1.80
2022-12-27T01:52:53.416Z,1.97
2022-12-27T01:55:25.094Z,1.97
2022-12-27T01:57:54.970Z,2.13
2022-12-27T02:00:23.190Z,2.30
2022-12-27T02:02:52.953Z,2.40
2022-12-27T02:05:22.495Z,1.87
2022-12-27T02:07:59.969Z,2.20
2022-12-27T02:10:29.812Z,2.87
2022-12-27T02:12:58.851Z,2.30
2022-12-27T02:15:27.027Z,2.33
2022-12-27T02:17:56.746Z,2.83
2022-12-27T02:20:25.848Z,2.30
2022-12-27T02:23:26.302Z,2.20
2022-12-27T02:26:06.188Z,2.30
2022-12-27T02:28:45.755Z,2.30
2022-12-27T02:31:16.767Z,2.20
2022-12-27T02:33:47.759Z,2.70
2022-12-27T02:36:19.812Z,2.70
2022-12-27T02:38:51.388Z,2.13
2022-12-27T02:41:37.857Z,2.40
2022-12-27T02:44:25.552Z,2.07
2022-12-27T02:47:07.756Z,2.53
2022-12-27T02:49:54.283Z,1.90
2022-12-27T02:52:49.498Z,2.57
2022-12-27T02:55:23.521Z,2.43
2022-12-27T02:57:56.056Z,2.97
2022-12-27T03:00:44.376Z,2.50
2022-12-27T03:03:28.841Z,2.17
2022-12-27T03:06:31.932Z,3.17
2022-12-27T03:09:04.800Z,2.50
2022-12-27T03:11:54.192Z,2.13
2022-12-27T03:14:47.883Z,2.20
2022-12-27T03:17:20.955Z,2.70
2022-12-27T03:20:07.870Z,2.27
2022-12-27T03:22:55.056Z,2.40
2022-12-27T03:25:29.646Z,2.93
2022-12-27T03:28:17.277Z,2.70
2022-12-27T03:31:04.902Z,2.63
2022-12-27T03:33:34.963Z,2.80
2022-12-27T03:36:24.036Z,2.63
2022-12-27T03:38:56.913Z,2.77
2022-12-27T03:41:50.226Z,2.40
2022-12-27T03:44:25.187Z,2.07
2022-12-27T03:46:55.052Z,2.50
2022-12-27T03:49:25.879Z,2.27
2022-12-27T03:51:56.436Z,2.90
2022-12-27T03:54:27.172Z,2.60
2022-12-27T03:56:56.581Z,2.23
2022-12-27T03:59:25.084Z,2.70
2022-12-27T04:01:53.358Z,2.70
2022-12-27T04:04:21.619Z,3.03
2022-12-27T04:06:51.142Z,3.03
2022-12-27T04:09:37.023Z,3.50
2022-12-27T04:12:22.835Z,2.63
2022-12-27T04:15:08.789Z,2.60
2022-12-27T04:17:54.749Z,2.83
2022-12-27T04:20:40.626Z,2.33
2022-12-27T04:23:27.923Z,2.43
2022-12-27T04:26:13.678Z,2.20
2022-12-27T04:28:59.545Z,2.10
2022-12-27T04:31:45.585Z,2.60
2022-12-27T04:34:31.515Z,2.40
2022-12-27T04:36:59.649Z,2.27
2022-12-27T04:39:29.174Z,2.67
2022-12-27T04:42:15.219Z,2.70
2022-12-27T04:45:01.247Z,2.63
2022-12-27T04:47:47.154Z,2.53
2022-12-27T04:50:41.013Z,2.63
2022-12-27T04:53:29.041Z,2.47
2022-12-27T04:55:58.559Z,2.50
2022-12-27T04:58:27.000Z,2.67
2022-12-27T05:01:14.460Z,2.97
2022-12-27T05:03:43.362Z,2.60
2022-12-27T05:06:11.671Z,2.87
2022-12-27T05:08:57.469Z,3.40
2022-12-27T05:11:45.017Z,2.70
2022-12-27T05:14:15.225Z,3.10
2022-12-27T05:16:44.881Z,2.50
2022-12-27T05:19:14.092Z,2.87
2022-12-27T05:22:03.624Z,2.87
2022-12-27T05:24:58.149Z,3.00
2022-12-27T05:27:27.633Z,2.47
2022-12-27T05:29:55.796Z,2.87
2022-12-27T05:32:23.949Z,3.13
2022-12-27T05:34:52.229Z,3.17
2022-12-27T05:37:20.416Z,3.30
2022-12-27T05:39:48.551Z,2.50
2022-12-27T05:42:16.683Z,2.70
2022-12-27T05:44:46.157Z,2.60
2022-12-27T05:47:14.278Z,2.90
2022-12-27T05:49:42.469Z,2.53
2022-12-27T05:52:10.673Z,2.70
2022-12-27T05:54:38.810Z,2.77
2022-12-27T05:57:07.049Z,2.17
2022-12-27T05:59:35.199Z,2.97
2022-12-27T06:02:04.784Z,2.40
2022-12-27T06:04:33.007Z,2.47
2022-12-27T06:07:01.194Z,2.77
2022-12-27T06:09:29.362Z,3.27
2022-12-27T06:11:57.522Z,2.67
2022-12-27T06:14:25.724Z,2.83
2022-12-27T06:16:53.944Z,2.57
2022-12-27T06:19:23.527Z,2.63
2022-12-27T06:21:51.728Z,2.70
2022-12-27T06:24:19.895Z,2.10
2022-12-27T06:26:48.036Z,2.57
2022-12-27T06:29:16.345Z,2.30
2022-12-27T06:31:44.769Z,2.80
2022-12-27T06:34:13.073Z,2.50
2022-12-27T06:36:42.610Z,2.60
2022-12-27T06:39:10.775Z,2.30
2022-12-27T06:41:38.896Z,2.50
2022-12-27T06:44:07.044Z,2.47
2022-12-27T06:46:35.233Z,2.20
2022-12-27T06:49:03.469Z,2.30
2022-12-27T06:51:31.629Z,3.13
2022-12-27T06:54:01.131Z,2.53
2022-12-27T06:56:29.336Z,3.20
2022-12-27T06:58:57.460Z,2.63
2022-12-27T07:01:26.322Z,2.40
2022-12-27T07:03:55.668Z,2.90
2022-12-27T07:06:24.409Z,2.47
2022-12-27T07:08:52.926Z,2.30
2022-12-27T07:11:22.883Z,2.57
2022-12-27T07:13:52.312Z,2.50
2022-12-27T07:16:22.458Z,2.70
2022-12-27T07:18:50.916Z,2.80
2022-12-27T07:21:20.021Z,2.50
2022-12-27T07:23:48.417Z,5.63
2022-12-27T07:26:17.678Z,3.23
2022-12-27T07:28:47.231Z,3.03
2022-12-27T07:31:16.186Z,3.23
2022-12-27T07:33:45.036Z,3.47
2022-12-27T07:36:15.511Z,3.93
2022-12-27T07:38:43.711Z,2.90
2022-12-27T07:41:12.387Z,3.47
2022-12-27T07:43:40.608Z,2.80
2022-12-27T07:46:11.922Z,3.03
2022-12-27T07:48:40.371Z,3.03
2022-12-27T07:51:08.843Z,3.47
2022-12-27T07:53:37.015Z,3.20
2022-12-27T07:56:09.031Z,3.43
2022-12-27T07:58:38.068Z,3.37
2022-12-27T08:01:06.634Z,3.10
2022-12-27T08:03:36.206Z,2.97
2022-12-27T08:06:04.474Z,3.50
2022-12-27T08:08:34.733Z,3.20
2022-12-27T08:11:05.654Z,4.00
2022-12-27T08:13:34.386Z,3.23
2022-12-27T08:16:02.787Z,3.30
2022-12-27T08:18:31.105Z,3.60
2022-12-27T08:21:00.615Z,3.50
2022-12-27T08:23:28.757Z,3.60
2022-12-27T08:25:57.187Z,2.77
2022-12-27T08:28:25.301Z,2.93
2022-12-27T08:30:53.509Z,2.83
2022-12-27T08:33:21.667Z,2.37
2022-12-27T08:35:52.575Z,3.00
2022-12-27T08:38:23.196Z,3.00
2022-12-27T08:40:51.575Z,3.00
2022-12-27T08:43:19.926Z,2.93
2022-12-27T08:45:48.203Z,2.50
2022-12-27T08:48:16.399Z,2.70
2022-12-27T08:50:44.592Z,2.70
2022-12-27T08:53:12.771Z,2.87
2022-12-27T08:55:42.323Z,2.80
2022-12-27T08:58:16.147Z,2.90
2022-12-27T09:00:44.854Z,2.97
2022-12-27T09:03:13.138Z,2.70
2022-12-27T09:05:42.140Z,2.90
2022-12-27T09:08:10.581Z,2.53
2022-12-27T09:10:39.063Z,2.57
2022-12-27T09:13:08.559Z,2.53
2022-12-27T09:15:36.841Z,2.33
2022-12-27T09:18:05.025Z,2.27
2022-12-27T09:20:33.179Z,2.57
2022-12-27T09:23:01.351Z,2.27
2022-12-27T09:25:29.594Z,2.60
2022-12-27T09:27:57.784Z,2.60
2022-12-27T09:30:27.467Z,2.63
2022-12-27T09:32:55.631Z,2.17
2022-12-27T09:35:23.797Z,2.30
2022-12-27T09:37:51.962Z,2.37
2022-12-27T09:40:21.828Z,2.30
2022-12-27T09:43:08.029Z,2.00
2022-12-27T09:45:43.993Z,2.27
2022-12-27T09:48:13.667Z,2.77
2022-12-27T09:50:44.200Z,2.40
2022-12-27T09:53:17.246Z,2.40
2022-12-27T09:55:46.867Z,2.47
2022-12-27T09:58:20.722Z,2.27
2022-12-27T10:00:52.790Z,1.80
2022-12-27T10:03:23.658Z,2.30
2022-12-27T10:05:56.464Z,2.60
2022-12-27T10:08:32.554Z,2.03
2022-12-27T10:11:02.360Z,2.50
2022-12-27T10:13:36.907Z,2.50
2022-12-27T10:16:12.538Z,2.30
2022-12-27T10:18:46.059Z,2.00
2022-12-27T10:21:18.653Z,2.30
2022-12-27T10:23:50.392Z,2.40
2022-12-27T10:26:19.495Z,2.67
2022-12-27T10:28:50.307Z,2.27
2022-12-27T10:31:23.098Z,2.53
2022-12-27T10:33:51.863Z,2.50
2022-12-27T10:36:21.070Z,2.37
2022-12-27T10:38:49.280Z,2.67
2022-12-27T10:41:36.956Z,2.50
2022-12-27T10:44:11.266Z,2.50
2022-12-27T10:46:42.596Z,2.37
2022-12-27T10:49:22.466Z,2.07
2022-12-27T10:51:51.644Z,2.70
2022-12-27T10:54:22.656Z,2.30
2022-12-27T10:56:50.850Z,2.43
2022-12-27T10:59:19.886Z,2.33
2022-12-27T11:01:51.614Z,2.30
2022-12-27T11:04:21.785Z,2.50
2022-12-27T11:06:51.397Z,2.00
2022-12-27T11:09:21.879Z,2.20
2022-12-27T11:11:50.048Z,2.70
2022-12-27T11:14:19.041Z,2.10
2022-12-27T11:16:47.747Z,2.30
2022-12-27T11:19:24.467Z,2.30
2022-12-27T11:21:53.355Z,2.23
2022-12-27T11:24:22.513Z,2.03
2022-12-27T11:26:54.795Z,2.57
2022-12-27T11:29:24.565Z,2.50
2022-12-27T11:31:53.178Z,2.03
2022-12-27T11:34:25.555Z,2.50
2022-12-27T11:36:55.334Z,2.20
2022-12-27T11:39:39.524Z,2.23
2022-12-27T11:42:09.884Z,2.10
2022-12-27T11:44:39.528Z,1.97
2022-12-27T11:47:10.553Z,2.50
2022-12-27T11:49:43.168Z,2.37
2022-12-27T11:52:35.414Z,2.20
2022-12-27T11:55:21.480Z,2.53
2022-12-27T11:58:04.598Z,1.87
2022-12-27T12:00:39.004Z,1.97
2022-12-27T12:03:36.582Z,2.17
2022-12-27T12:06:12.957Z,2.43
2022-12-27T12:08:50.013Z,2.60
2022-12-27T12:11:27.123Z,2.03
2022-12-27T12:14:06.694Z,2.27
2022-12-27T12:16:45.221Z,2.60
2022-12-27T12:19:21.374Z,1.90
2022-12-27T12:21:55.389Z,2.30
2022-12-27T12:24:31.352Z,2.37
2022-12-27T12:27:07.238Z,2.30
2022-12-27T12:29:48.160Z,2.43
2022-12-27T12:32:23.753Z,2.37
2022-12-27T12:35:05.460Z,1.90
2022-12-27T12:37:40.652Z,2.20
2022-12-27T12:40:17.238Z,2.23
2022-12-27T12:42:50.149Z,2.93
2022-12-27T12:45:38.343Z,2.00
2022-12-27T12:48:13.580Z,2.37
2022-12-27T12:50:52.668Z,2.20
2022-12-27T12:53:28.835Z,2.10
2022-12-27T12:56:03.597Z,2.20
2022-12-27T12:58:38.882Z,2.33
2022-12-27T13:01:14.734Z,2.17
2022-12-27T13:03:48.398Z,1.80
2022-12-27T13:06:24.433Z,2.00
2022-12-27T13:08:57.832Z,2.53
2022-12-27T13:11:31.764Z,1.90
2022-12-27T13:14:07.684Z,2.23
2022-12-27T13:16:42.111Z,2.30
2022-12-27T13:19:16.734Z,1.63
2022-12-27T13:21:52.399Z,1.83
2022-12-27T13:24:29.542Z,1.50
2022-12-27T13:27:02.348Z,2.00
2022-12-27T13:29:48.126Z,1.93
2022-12-27T13:32:21.382Z,2.13
2022-12-27T13:34:55.735Z,1.77
2022-12-27T13:37:32.718Z,1.80
2022-12-27T13:40:15.763Z,2.07
2022-12-27T13:42:48.341Z,1.80
2022-12-27T13:45:23.604Z,2.10
2022-12-27T13:48:00.046Z,1.53
2022-12-27T13:50:38.441Z,1.77
2022-12-27T13:53:18.410Z,2.13
2022-12-27T13:55:53.258Z,1.97
2022-12-27T13:58:47.302Z,1.40
2022-12-27T14:01:29.244Z,1.80
2022-12-27T14:04:06.680Z,2.03
2022-12-27T14:06:44.941Z,2.03
2022-12-27T14:09:30.918Z,1.73
2022-12-27T14:12:06.681Z,1.50
2022-12-27T14:14:36.498Z,1.77
2022-12-27T14:17:11.471Z,1.80
2022-12-27T14:20:00.643Z,1.67
2022-12-27T14:22:37.087Z,1.80
2022-12-27T14:25:23.771Z,1.50
2022-12-27T14:28:10.621Z,1.67
2022-12-27T14:30:57.050Z,1.50
2022-12-27T14:33:42.282Z,2.00
2022-12-27T14:36:28.906Z,1.70
2022-12-27T14:39:11.951Z,1.80
2022-12-27T14:41:55.608Z,1.80
2022-12-27T14:44:37.469Z,1.80
2022-12-27T14:47:23.291Z,1.70
2022-12-27T14:50:06.310Z,1.77
2022-12-27T14:53:06.648Z,1.70
2022-12-27T14:55:40.041Z,2.30
2022-12-27T14:58:17.856Z,1.63
2022-12-27T15:00:59.615Z,1.73
2022-12-27T15:03:41.303Z,1.50
2022-12-27T15:06:13.105Z,1.40
2022-12-27T15:08:47.496Z,2.03
2022-12-27T15:11:21.805Z,1.73
2022-12-27T15:13:56.315Z,1.50
2022-12-27T15:16:30.190Z,1.90
2022-12-27T15:19:05.437Z,1.73
2022-12-27T15:21:51.463Z,1.70
2022-12-27T15:24:30.186Z,1.70
2022-12-27T15:27:01.077Z,1.80
2022-12-27T15:29:33.630Z,1.60
2022-12-27T15:32:06.729Z,2.03
2022-12-27T15:34:40.973Z,1.90
2022-12-27T15:37:29.872Z,1.70
2022-12-27T15:39:58.648Z,1.73
2022-12-27T15:42:37.985Z,1.63
2022-12-27T15:45:14.044Z,1.57
2022-12-27T15:47:50.846Z,2.50
2022-12-27T15:50:36.050Z,1.80
2022-12-27T15:53:14.751Z,2.17
2022-12-27T15:55:57.567Z,1.90
2022-12-27T15:58:25.885Z,2.20
2022-12-27T16:01:12.524Z,1.30
2022-12-27T16:03:41.133Z,2.17
2022-12-27T16:06:31.755Z,2.03
2022-12-27T16:09:14.773Z,2.00
2022-12-27T16:12:00.297Z,2.13
2022-12-27T16:14:30.157Z,2.20
2022-12-27T16:17:04.575Z,2.33
2022-12-27T16:19:47.625Z,2.57
2022-12-27T16:22:32.742Z,2.73
2022-12-27T16:25:01.255Z,2.23
2022-12-27T16:27:31.074Z,2.00
2022-12-27T16:29:59.855Z,2.17
2022-12-27T16:32:29.270Z,2.13
2022-12-27T16:35:07.546Z,2.03
2022-12-27T16:37:44.874Z,2.33
2022-12-27T16:40:20.685Z,1.80
2022-12-27T16:43:15.735Z,1.90
2022-12-27T16:45:48.843Z,2.17
2022-12-27T16:48:22.548Z,2.10
2022-12-27T16:50:56.141Z,2.07
2022-12-27T16:53:42.275Z,1.90
2022-12-27T16:56:18.114Z,2.70
2022-12-27T16:58:46.318Z,2.30
2022-12-27T17:01:32.517Z,2.03
2022-12-27T17:04:00.795Z,2.20
2022-12-27T17:06:47.421Z,2.40
2022-12-27T17:09:34.415Z,1.90
2022-12-27T17:12:06.765Z,2.37
2022-12-27T17:14:36.579Z,2.10
2022-12-27T17:17:09.059Z,1.90
2022-12-27T17:19:39.052Z,2.33
2022-12-27T17:22:09.338Z,1.90
2022-12-27T17:24:37.509Z,2.27
2022-12-27T17:27:11.564Z,2.03
2022-12-27T17:29:50.116Z,1.90
2022-12-27T17:32:26.209Z,2.20
2022-12-27T17:34:59.613Z,1.90
2022-12-27T17:37:30.397Z,1.90
2022-12-27T17:40:05.068Z,2.20
2022-12-27T17:42:55.026Z,2.23
2022-12-27T17:45:31.044Z,2.20
2022-12-27T17:48:07.775Z,1.90
2022-12-27T17:50:37.037Z,2.20
2022-12-27T17:53:34.784Z,2.00
2022-12-27T17:56:22.350Z,2.37
2022-12-27T17:58:56.525Z,1.77
2022-12-27T18:01:29.631Z,2.00
2022-12-27T18:03:57.888Z,2.27
2022-12-27T18:06:26.090Z,1.80
2022-12-27T18:08:54.277Z,1.80
2022-12-27T18:11:27.885Z,1.70
2022-12-27T18:13:58.960Z,2.27
2022-12-27T18:16:33.316Z,2.00
2022-12-27T18:19:02.983Z,1.83
2022-12-27T18:21:32.027Z,2.00
2022-12-27T18:24:00.165Z,2.43
2022-12-27T18:26:36.537Z,1.90
2022-12-27T18:29:06.466Z,2.17
2022-12-27T18:31:37.968Z,2.23
2022-12-27T18:34:07.848Z,2.13
2022-12-27T18:36:39.304Z,2.17
2022-12-27T18:39:09.261Z,2.03
2022-12-27T18:41:38.944Z,2.27
2022-12-27T18:44:11.856Z,1.80
2022-12-27T18:46:40.511Z,1.87
2022-12-27T18:49:09.367Z,2.37
2022-12-27T18:51:38.235Z,2.07
2022-12-27T18:54:21.846Z,2.33
2022-12-27T18:56:52.490Z,2.10
2022-12-27T18:59:25.783Z,2.63
2022-12-27T19:01:54.990Z,1.70
2022-12-27T19:04:24.788Z,2.43
2022-12-27T19:06:55.647Z,1.90
2022-12-27T19:09:25.358Z,2.20
2022-12-27T19:11:54.581Z,2.40
2022-12-27T19:14:24.673Z,2.00
2022-12-27T19:16:54.499Z,2.27
2022-12-27T19:19:25.803Z,2.30
2022-12-27T19:21:54.297Z,2.40
2022-12-27T19:24:33.421Z,2.70
2022-12-27T19:27:02.591Z,2.50
2022-12-27T19:29:39.355Z,2.30
2022-12-27T19:32:11.440Z,2.70
2022-12-27T19:34:43.232Z,2.60
2022-12-27T19:37:11.528Z,2.27
2022-12-27T19:39:40.358Z,2.63
2022-12-27T19:42:09.512Z,2.00
2022-12-27T19:44:39.275Z,2.37
2022-12-27T19:47:07.948Z,2.83
2022-12-27T19:49:44.788Z,2.77
2022-12-27T19:52:17.007Z,2.93
2022-12-27T19:54:45.292Z,2.60
2022-12-27T19:57:13.490Z,2.40
2022-12-27T19:59:42.969Z,2.80
2022-12-27T20:02:11.433Z,2.50
2022-12-27T20:04:40.018Z,1.80
2022-12-27T20:07:08.215Z,2.30
2022-12-27T20:09:36.375Z,2.30
2022-12-27T20:12:04.543Z,2.03
2022-12-27T20:14:32.693Z,2.20
2022-12-27T20:17:02.294Z,1.90
2022-12-27T20:19:30.599Z,2.03
2022-12-27T20:21:58.800Z,2.00
2022-12-27T20:24:26.967Z,2.30
2022-12-27T20:26:55.144Z,2.17
2022-12-27T20:29:23.364Z,2.03
2022-12-27T20:31:52.215Z,2.17
2022-12-27T20:34:21.830Z,2.47
2022-12-27T20:36:52.028Z,2.10
2022-12-27T20:39:20.201Z,2.23
2022-12-27T20:41:48.373Z,1.50
2022-12-27T20:44:16.551Z,2.13
2022-12-27T20:46:44.712Z,1.90
2022-12-27T20:49:12.880Z,2.10
2022-12-27T20:51:42.527Z,2.20
2022-12-27T20:54:12.146Z,2.23
2022-12-27T20:56:40.293Z,1.93
2022-12-27T20:59:08.470Z,1.57
2022-12-27T21:01:36.833Z,1.90
2022-12-27T21:04:05.779Z,1.57
2022-12-27T21:06:33.886Z,1.87
2022-12-27T21:09:03.438Z,1.90
2022-12-27T21:11:32.221Z,1.77
2022-12-27T21:14:01.581Z,1.50
2022-12-27T21:16:30.502Z,2.03
2022-12-27T21:18:59.260Z,1.97
2022-12-27T21:21:29.038Z,2.03
2022-12-27T21:23:57.302Z,1.90
2022-12-27T21:26:27.932Z,1.80
2022-12-27T21:28:56.230Z,1.73
2022-12-27T21:31:24.846Z,1.83
2022-12-27T21:33:53.291Z,1.50
2022-12-27T21:36:22.347Z,1.67
2022-12-27T21:38:50.540Z,1.43
2022-12-27T21:41:19.985Z,1.40
2022-12-27T21:43:50.206Z,1.70
2022-12-27T21:46:19.612Z,1.70
2022-12-27T21:48:47.993Z,1.83
2022-12-27T21:51:16.938Z,1.50
2022-12-27T21:53:45.358Z,1.40
2022-12-27T21:56:14.086Z,1.60
2022-12-27T21:58:42.943Z,1.57
2022-12-27T22:01:13.549Z,1.80
2022-12-27T22:03:42.520Z,1.27
2022-12-27T22:06:11.555Z,1.80
2022-12-27T22:08:39.757Z,1.70
2022-12-27T22:11:08.083Z,1.70
2022-12-27T22:13:37.204Z,1.73
2022-12-27T22:16:06.339Z,1.70
2022-12-27T22:18:36.388Z,1.50
2022-12-27T22:21:05.737Z,1.70
2022-12-27T22:23:34.056Z,1.40
2022-12-27T22:26:02.265Z,1.30
2022-12-27T22:28:30.523Z,1.50
2022-12-27T22:30:58.742Z,1.77
2022-12-27T22:33:26.896Z,1.47
2022-12-27T22:36:03.007Z,1.53
2022-12-27T22:38:31.614Z,1.57
2022-12-27T22:41:05.240Z,1.30
2022-12-27T22:43:33.459Z,2.13
2022-12-27T22:46:01.655Z,1.30
2022-12-27T22:48:29.858Z,1.70
2022-12-27T22:50:59.346Z,1.40
2022-12-27T22:53:27.498Z,1.83
2022-12-27T22:55:55.674Z,1.60
2022-12-27T22:58:23.830Z,1.67
2022-12-27T23:00:51.967Z,1.30
2022-12-27T23:03:20.122Z,2.27
2022-12-27T23:05:57.023Z,1.50
2022-12-27T23:08:26.538Z,1.20
2022-12-27T23:10:54.852Z,1.53
2022-12-27T23:13:24.767Z,1.37
2022-12-27T23:15:57.875Z,1.33
2022-12-27T23:18:26.249Z,1.30
2022-12-27T23:21:21.165Z,1.47
2022-12-27T23:23:44.696Z,1.50
2022-12-27T23:26:15.499Z,1.43
2022-12-27T23:28:44.480Z,1.63
2022-12-27T23:31:13.335Z,1.40
2022-12-27T23:33:42.210Z,1.67
2022-12-27T23:36:10.784Z,1.70
2022-12-27T23:38:39.001Z,1.50
2022-12-27T23:41:09.243Z,1.43
2022-12-27T23:43:55.339Z,1.50
2022-12-27T23:46:25.181Z,2.30
2022-12-27T23:48:53.656Z,1.60
2022-12-27T23:51:22.093Z,1.60
2022-12-27T23:53:50.248Z,1.77
2022-12-27T23:56:20.808Z,1.73
2022-12-27T23:58:49.330Z,1.50
